createdAt,value
2017-12-02T00:00:26.674Z,2.03
2017-12-02T00:02:52.532Z,2.06
2017-12-02T00:05:18.356Z,2.12
2017-12-02T00:07:44.190Z,2.05
2017-12-02T00:10:09.982Z,2.04
2017-12-02T00:12:35.778Z,1.99
2017-12-02T00:15:01.615Z,2.00
2017-12-02T00:17:27.443Z,1.98
2017-12-02T00:19:53.272Z,1.97
2017-12-02T00:22:19.120Z,2.00
2017-12-02T00:24:44.945Z,2.03
2017-12-02T00:27:10.772Z,2.05
2017-12-02T00:29:41.678Z,2.01
2017-12-02T00:32:07.477Z,2.02
2017-12-02T00:34:34.175Z,1.95
2017-12-02T00:37:00.013Z,1.98
2017-12-02T00:39:28.978Z,2.04
2017-12-02T00:41:54.837Z,2.01
2017-12-02T00:44:24.156Z,1.84
2017-12-02T00:46:49.988Z,1.86
2017-12-02T00:49:15.777Z,1.87
2017-12-02T00:51:41.647Z,1.87
2017-12-02T00:54:07.450Z,1.86
2017-12-02T00:56:36.559Z,1.84
2017-12-02T00:59:02.363Z,1.81
2017-12-02T01:01:29.911Z,1.81
2017-12-02T01:03:55.725Z,1.77
2017-12-02T01:08:52.261Z,1.69
2017-12-02T01:11:20.013Z,1.63
2017-12-02T01:13:45.864Z,1.57
2017-12-02T01:16:15.425Z,1.54
2017-12-02T01:18:41.280Z,1.46
2017-12-02T01:21:10.207Z,1.45
2017-12-02T01:23:36.036Z,1.45
2017-12-02T01:26:01.887Z,1.52
2017-12-02T01:28:27.693Z,1.55
2017-12-02T01:30:53.546Z,1.51
2017-12-02T01:33:21.140Z,1.38
2017-12-02T01:35:46.931Z,1.52
2017-12-02T01:38:16.751Z,1.59
2017-12-02T01:40:42.520Z,1.52
2017-12-02T01:43:11.864Z,1.45
2017-12-02T01:45:37.662Z,1.42
2017-12-02T01:48:05.242Z,1.48
2017-12-02T01:50:31.073Z,1.57
2017-12-02T01:53:00.816Z,1.59
2017-12-02T01:55:26.592Z,1.60
2017-12-02T01:57:54.444Z,1.64
2017-12-02T02:00:20.239Z,1.72
2017-12-02T02:02:46.093Z,1.61
2017-12-02T02:05:11.948Z,1.61
2017-12-02T02:07:38.514Z,1.41
2017-12-02T02:10:07.351Z,1.37
2017-12-02T02:12:33.107Z,1.36
2017-12-02T02:15:00.635Z,1.40
2017-12-02T02:17:26.387Z,1.42
2017-12-02T02:19:52.829Z,1.34
2017-12-02T02:22:18.611Z,1.30
2017-12-02T02:24:44.379Z,1.33
2017-12-02T02:27:13.508Z,1.32
2017-12-02T02:29:39.355Z,1.33
2017-12-02T02:32:07.017Z,1.39
2017-12-02T02:34:32.861Z,1.42
2017-12-02T02:37:01.900Z,1.32
2017-12-02T02:39:27.687Z,1.37
2017-12-02T02:41:57.058Z,1.24
2017-12-02T02:44:22.886Z,1.33
2017-12-02T02:46:51.194Z,1.34
2017-12-02T02:49:17.023Z,1.34
2017-12-02T02:51:46.072Z,1.37
2017-12-02T02:54:11.869Z,1.34
2017-12-02T02:56:40.608Z,1.37
2017-12-02T02:59:06.392Z,1.24
2017-12-02T03:01:35.343Z,1.12
2017-12-02T03:04:01.125Z,1.18
2017-12-02T03:06:29.764Z,1.13
2017-12-02T03:08:55.593Z,1.15
2017-12-02T03:13:52.167Z,1.08
2017-12-02T03:16:18.032Z,1.06
2017-12-02T03:18:43.867Z,0.94
2017-12-02T03:21:09.717Z,0.94
2017-12-02T03:23:37.116Z,0.94
2017-12-02T03:26:02.958Z,1.06
2017-12-02T03:28:31.298Z,1.14
2017-12-02T03:30:57.149Z,1.19
2017-12-02T03:33:26.821Z,1.20
2017-12-02T03:35:52.651Z,1.24
2017-12-02T03:38:22.428Z,1.31
2017-12-02T03:40:48.252Z,1.22
2017-12-02T03:43:15.758Z,1.16
2017-12-02T03:45:41.606Z,1.10
2017-12-02T03:48:11.176Z,1.10
2017-12-02T03:50:36.986Z,1.11
2017-12-02T03:53:02.762Z,1.12
2017-12-02T03:55:28.666Z,1.08
2017-12-02T03:57:54.482Z,1.06
2017-12-02T04:00:23.489Z,1.02
2017-12-02T04:02:49.398Z,0.90
2017-12-02T04:05:17.044Z,0.79
2017-12-02T04:07:42.928Z,0.72
2017-12-02T04:10:11.332Z,0.64
2017-12-02T04:12:37.189Z,0.58
2017-12-02T04:15:06.958Z,0.58
2017-12-02T04:17:32.820Z,0.60
2017-12-02T04:20:02.413Z,0.59
2017-12-02T04:22:28.241Z,0.61
2017-12-02T04:24:55.965Z,0.50
2017-12-02T04:27:21.783Z,0.32
2017-12-02T04:29:47.642Z,0.34
2017-12-02T04:32:13.404Z,0.29
2017-12-02T04:34:39.252Z,0.21
2017-12-02T04:37:08.322Z,0.24
2017-12-02T04:39:34.127Z,0.25
2017-12-02T04:42:01.934Z,0.30
2017-12-02T04:44:27.787Z,0.25
2017-12-02T04:46:57.973Z,0.12
2017-12-02T04:49:23.836Z,-0.09
2017-12-02T04:51:51.427Z,-0.03
2017-12-02T04:54:17.277Z,0.03
2017-12-02T04:56:45.907Z,0.04
2017-12-02T04:59:11.713Z,-0.03
2017-12-02T05:01:38.288Z,-0.10
2017-12-02T05:04:04.106Z,-0.13
2017-12-02T05:06:29.976Z,-0.05
2017-12-02T05:08:57.732Z,-0.02
2017-12-02T05:11:23.572Z,0.06
2017-12-02T05:13:52.882Z,-0.25
2017-12-02T05:16:18.705Z,-0.42
2017-12-02T05:18:48.173Z,-0.55
2017-12-02T05:21:13.973Z,-0.45
2017-12-02T05:23:43.234Z,-0.38
2017-12-02T05:26:09.008Z,-0.25
2017-12-02T05:28:37.662Z,-0.17
2017-12-02T05:31:03.434Z,-0.21
2017-12-02T05:33:32.734Z,-0.12
2017-12-02T05:35:58.521Z,-0.07
2017-12-02T05:38:26.101Z,-0.02
2017-12-02T05:40:51.902Z,-0.02
2017-12-02T05:43:17.748Z,-0.06
2017-12-02T05:45:43.614Z,-0.12
2017-12-02T05:48:09.456Z,-0.15
2017-12-02T05:50:39.278Z,-0.07
2017-12-02T05:53:05.091Z,0.10
2017-12-02T05:55:32.510Z,0.02
2017-12-02T05:57:58.400Z,0.05
2017-12-02T06:00:27.061Z,0.11
2017-12-02T06:02:52.912Z,0.03
2017-12-02T06:07:49.413Z,-0.30
2017-12-02T06:10:16.795Z,-0.26
2017-12-02T06:12:42.574Z,-0.22
2017-12-02T06:15:11.616Z,-0.21
2017-12-02T06:17:37.430Z,-0.11
2017-12-02T06:20:03.240Z,-0.12
2017-12-02T06:22:29.056Z,-0.14
2017-12-02T06:24:54.929Z,-0.07
2017-12-02T06:27:23.895Z,0.01
2017-12-02T06:29:49.756Z,0.11
2017-12-02T06:32:17.559Z,0.20
2017-12-02T06:34:43.383Z,0.16
2017-12-02T06:39:40.016Z,0.04
2017-12-02T06:42:07.424Z,-0.08
2017-12-02T06:44:33.269Z,-0.14
2017-12-02T06:47:02.591Z,-0.31
2017-12-02T06:49:28.427Z,-0.31
2017-12-02T06:51:58.226Z,-0.20
2017-12-02T06:54:24.086Z,-0.19
2017-12-02T06:56:49.913Z,-0.26
2017-12-02T06:59:15.754Z,-0.27
2017-12-02T07:01:41.658Z,-0.18
2017-12-02T07:04:08.604Z,-0.14
2017-12-02T07:06:34.485Z,-0.24
2017-12-02T07:09:03.883Z,-0.22
2017-12-02T07:11:29.729Z,-0.51
2017-12-02T07:13:58.604Z,-0.68
2017-12-02T07:16:24.493Z,-1.05
2017-12-02T07:18:54.164Z,-1.42
2017-12-02T07:21:20.037Z,-1.53
2017-12-02T07:23:47.421Z,-1.76
2017-12-02T07:26:13.250Z,-1.61
2017-12-02T07:28:42.682Z,-1.27
2017-12-02T07:31:08.532Z,-1.11
2017-12-02T07:33:34.381Z,-0.92
2017-12-02T07:36:00.196Z,-0.86
2017-12-02T07:38:25.999Z,-0.68
2017-12-02T07:40:53.629Z,-0.58
2017-12-02T07:43:19.451Z,-0.51
2017-12-02T07:45:49.048Z,-0.49
2017-12-02T07:48:14.889Z,-0.35
2017-12-02T07:50:43.088Z,-0.25
2017-12-02T07:53:08.926Z,-0.18
2017-12-02T07:55:37.693Z,-0.12
2017-12-02T07:58:03.536Z,-0.34
2017-12-02T08:03:00.220Z,-0.43
2017-12-02T08:05:27.898Z,-0.39
2017-12-02T08:07:53.748Z,-0.28
2017-12-02T08:10:19.566Z,-0.24
2017-12-02T08:12:45.435Z,-0.27
2017-12-02T08:15:11.295Z,-0.13
2017-12-02T08:17:38.850Z,-0.15
2017-12-02T08:20:04.696Z,-0.25
2017-12-02T08:22:33.383Z,-0.40
2017-12-02T08:24:59.244Z,-0.80
2017-12-02T08:29:55.948Z,-0.88
2017-12-02T08:32:23.468Z,-1.08
2017-12-02T08:34:49.254Z,-0.97
2017-12-02T08:37:17.841Z,-0.97
2017-12-02T08:39:43.722Z,-1.02
2017-12-02T08:42:12.786Z,-0.77
2017-12-02T08:44:38.663Z,-0.52
2017-12-02T08:47:04.501Z,-0.43
2017-12-02T08:49:30.294Z,-0.44
2017-12-02T08:51:56.209Z,-0.22
2017-12-02T08:54:25.342Z,0.05
2017-12-02T08:56:51.214Z,0.21
2017-12-02T08:59:20.738Z,0.35
2017-12-02T09:01:46.629Z,0.40
2017-12-02T09:04:14.001Z,0.32
2017-12-02T09:06:39.864Z,0.34
2017-12-02T09:09:09.692Z,0.05
2017-12-02T09:11:35.534Z,0.18
2017-12-02T09:14:03.292Z,0.46
2017-12-02T09:16:29.148Z,0.62
2017-12-02T09:18:58.432Z,0.71
2017-12-02T09:21:24.297Z,0.76
2017-12-02T09:23:50.160Z,0.80
2017-12-02T09:26:15.984Z,0.71
2017-12-02T09:28:41.836Z,0.69
2017-12-02T09:31:10.940Z,0.86
2017-12-02T09:33:36.769Z,0.92
2017-12-02T09:36:05.536Z,0.99
2017-12-02T09:38:31.349Z,1.10
2017-12-02T09:40:59.044Z,1.09
2017-12-02T09:43:24.950Z,0.91
2017-12-02T09:45:54.135Z,1.12
2017-12-02T09:48:19.950Z,1.14
2017-12-02T09:50:48.883Z,1.10
2017-12-02T09:53:14.702Z,1.09
2017-12-02T09:55:43.200Z,1.09
2017-12-02T09:58:09.045Z,0.99
2017-12-02T10:00:34.878Z,0.99
2017-12-02T10:03:00.703Z,1.12
2017-12-02T10:05:26.492Z,1.19
2017-12-02T10:07:55.575Z,1.28
2017-12-02T10:10:21.372Z,1.29
2017-12-02T10:12:50.864Z,1.20
2017-12-02T10:15:16.695Z,1.06
2017-12-02T10:17:44.471Z,0.53
2017-12-02T10:20:10.369Z,0.35
2017-12-02T10:22:39.491Z,0.12
2017-12-02T10:25:05.376Z,0.44
2017-12-02T10:27:34.223Z,0.70
2017-12-02T10:30:00.089Z,0.86
2017-12-02T10:32:29.365Z,1.02
2017-12-02T10:34:55.244Z,1.23
2017-12-02T10:37:21.099Z,1.34
2017-12-02T10:39:46.986Z,1.38
2017-12-02T10:42:12.829Z,1.49
2017-12-02T10:44:41.889Z,1.40
2017-12-02T10:47:07.743Z,1.41
2017-12-02T10:49:35.475Z,1.38
2017-12-02T10:52:01.317Z,1.39
2017-12-02T10:54:29.740Z,1.46
2017-12-02T10:56:55.544Z,1.47
2017-12-02T10:59:24.976Z,1.26
2017-12-02T11:01:50.836Z,1.34
2017-12-02T11:04:19.692Z,1.42
2017-12-02T11:06:45.557Z,1.21
2017-12-02T11:09:13.990Z,1.20
2017-12-02T11:11:39.762Z,1.35
2017-12-02T11:14:05.592Z,1.44
2017-12-02T11:16:31.408Z,1.52
2017-12-02T11:18:57.231Z,1.55
2017-12-02T11:21:26.240Z,1.57
2017-12-02T11:23:52.012Z,1.68
2017-12-02T11:26:20.302Z,1.73
2017-12-02T11:28:46.165Z,1.69
2017-12-02T11:31:15.800Z,1.77
2017-12-02T11:33:41.576Z,1.70
2017-12-02T11:36:11.066Z,1.71
2017-12-02T11:38:36.874Z,1.63
2017-12-02T11:41:04.525Z,1.50
2017-12-02T11:43:30.334Z,1.60
2017-12-02T11:45:59.522Z,1.67
2017-12-02T11:48:25.368Z,1.67
2017-12-02T11:50:51.188Z,1.61
2017-12-02T11:53:17.035Z,1.57
2017-12-02T11:55:42.998Z,1.48
2017-12-02T11:58:10.682Z,1.59
2017-12-02T12:00:36.545Z,1.58
2017-12-02T12:03:05.283Z,1.62
2017-12-02T12:05:31.091Z,1.67
2017-12-02T12:10:27.735Z,1.70
2017-12-02T12:12:55.197Z,1.77
2017-12-02T12:15:21.030Z,1.81
2017-12-02T12:17:51.112Z,1.75
2017-12-02T12:20:16.886Z,1.79
2017-12-02T12:22:44.627Z,1.68
2017-12-02T12:25:10.467Z,1.60
2017-12-02T12:27:36.270Z,1.67
2017-12-02T12:30:02.088Z,1.73
2017-12-02T12:32:27.892Z,1.71
2017-12-02T12:34:56.006Z,1.59
2017-12-02T12:37:21.861Z,1.65
2017-12-02T12:42:18.647Z,1.79
2017-12-02T12:44:45.736Z,1.70
2017-12-02T12:47:11.542Z,1.71
2017-12-02T12:49:41.830Z,1.72
2017-12-02T12:52:07.657Z,1.77
2017-12-02T12:54:35.366Z,1.82
2017-12-02T12:57:01.164Z,1.94
2017-12-02T12:59:31.035Z,2.06
2017-12-02T13:01:56.923Z,2.08
2017-12-02T13:04:22.954Z,2.02
2017-12-02T13:06:48.813Z,2.08
2017-12-02T13:09:14.594Z,1.81
2017-12-02T13:11:42.151Z,1.78
2017-12-02T13:14:07.972Z,1.82
2017-12-02T13:16:37.609Z,1.95
2017-12-02T13:19:03.392Z,1.94
2017-12-02T13:21:31.146Z,1.91
2017-12-02T13:23:56.990Z,1.95
2017-12-02T13:26:29.688Z,2.09
2017-12-02T13:28:55.549Z,2.14
2017-12-02T13:31:21.348Z,2.21
2017-12-02T13:33:47.166Z,2.03
2017-12-02T13:36:16.939Z,2.08
2017-12-02T13:38:42.758Z,2.03
2017-12-02T13:41:08.614Z,2.17
2017-12-02T13:43:34.422Z,2.32
2017-12-02T13:46:00.199Z,2.20
2017-12-02T13:48:27.145Z,2.18
2017-12-02T13:50:52.991Z,2.22
2017-12-02T13:53:21.883Z,2.20
2017-12-02T13:55:47.708Z,2.24
2017-12-02T13:58:17.008Z,2.24
2017-12-02T14:00:42.830Z,2.20
2017-12-02T14:03:12.326Z,2.15
2017-12-02T14:05:38.188Z,2.14
2017-12-02T14:08:07.303Z,2.15
2017-12-02T14:10:33.152Z,2.14
2017-12-02T14:13:00.488Z,2.17
2017-12-02T14:15:26.336Z,2.10
2017-12-02T14:17:52.114Z,1.85
2017-12-02T14:20:17.931Z,1.87
2017-12-02T14:22:43.748Z,1.92
2017-12-02T14:25:13.574Z,2.04
2017-12-02T14:27:39.366Z,2.10
2017-12-02T14:30:06.787Z,2.13
2017-12-02T14:32:32.586Z,2.11
2017-12-02T14:35:02.119Z,2.19
2017-12-02T14:37:27.956Z,2.02
2017-12-02T14:39:57.114Z,1.83
2017-12-02T14:42:22.908Z,1.54
2017-12-02T14:44:52.544Z,1.69
2017-12-02T14:47:18.372Z,1.85
2017-12-02T14:49:45.913Z,1.91
2017-12-02T14:52:11.714Z,1.81
2017-12-02T14:54:37.532Z,1.92
2017-12-02T14:57:03.357Z,1.96
2017-12-02T14:59:29.144Z,2.05
2017-12-02T15:01:58.776Z,2.03
2017-12-02T15:07:09.014Z,2.00
2017-12-02T15:09:34.805Z,2.03
2017-12-02T15:12:00.722Z,2.01
2017-12-02T15:14:26.450Z,1.95
2017-12-02T15:16:52.250Z,1.92
2017-12-02T15:19:18.031Z,1.73
2017-12-02T15:21:43.833Z,1.75
2017-12-02T15:24:09.705Z,1.83
2017-12-02T15:26:35.516Z,1.91
2017-12-02T15:29:01.336Z,1.85
2017-12-02T15:31:27.160Z,1.82
2017-12-02T15:33:52.980Z,1.78
2017-12-02T15:36:18.806Z,1.75
2017-12-02T15:38:44.623Z,1.81
2017-12-02T15:41:10.458Z,1.79
2017-12-02T15:43:37.694Z,1.68
2017-12-02T15:46:03.523Z,1.61
2017-12-02T15:48:32.168Z,1.58
2017-12-02T15:50:58.006Z,1.61
2017-12-02T15:53:27.372Z,1.48
2017-12-02T15:55:53.250Z,1.23
2017-12-02T15:58:22.635Z,1.22
2017-12-02T16:00:48.452Z,1.31
2017-12-02T16:03:16.366Z,1.30
2017-12-02T16:05:42.191Z,1.39
2017-12-02T16:08:08.004Z,1.31
2017-12-02T16:10:33.826Z,1.39
2017-12-02T16:12:59.705Z,1.46
2017-12-02T16:15:28.074Z,1.39
2017-12-02T16:17:53.936Z,1.47
2017-12-02T16:20:22.361Z,1.45
2017-12-02T16:22:48.176Z,1.38
2017-12-02T16:27:44.932Z,1.12
2017-12-02T16:30:12.534Z,1.14
2017-12-02T16:32:38.344Z,1.07
2017-12-02T16:35:07.352Z,1.08
2017-12-02T16:37:33.125Z,1.07
2017-12-02T16:40:02.386Z,1.10
2017-12-02T16:42:28.191Z,1.08
2017-12-02T16:44:54.042Z,1.08
2017-12-02T16:47:19.885Z,1.08
2017-12-02T16:49:45.739Z,1.06
2017-12-02T16:52:13.262Z,1.05
2017-12-02T16:54:39.073Z,1.11
2017-12-02T16:57:08.151Z,1.14
2017-12-02T16:59:33.997Z,1.24
2017-12-02T17:02:02.892Z,1.25
2017-12-02T17:04:28.747Z,1.29
2017-12-02T17:06:57.772Z,1.24
2017-12-02T17:09:23.659Z,1.20
2017-12-02T17:12:23.800Z,1.17
2017-12-02T17:14:49.634Z,1.23
2017-12-02T17:17:15.444Z,1.22
2017-12-02T17:19:41.262Z,1.16
2017-12-02T17:22:07.032Z,1.06
2017-12-02T17:24:32.882Z,1.04
2017-12-02T17:26:58.712Z,0.95
2017-12-02T17:29:24.559Z,1.01
2017-12-02T17:31:50.454Z,1.08
2017-12-02T17:34:16.279Z,1.10
2017-12-02T17:36:42.076Z,1.14
2017-12-02T17:39:08.492Z,1.18
2017-12-02T17:41:34.333Z,1.14
2017-12-02T17:44:03.639Z,1.14
2017-12-02T17:46:29.461Z,1.06
2017-12-02T17:48:58.741Z,1.02
2017-12-02T17:51:24.517Z,1.02
2017-12-02T17:53:53.602Z,1.04
2017-12-02T17:56:19.445Z,1.11
2017-12-02T17:58:47.459Z,1.11
2017-12-02T18:01:13.287Z,1.11
2017-12-02T18:03:39.187Z,1.06
2017-12-02T18:06:04.993Z,0.94
2017-12-02T18:08:30.803Z,1.03
2017-12-02T18:10:59.651Z,1.11
2017-12-02T18:13:25.464Z,0.95
2017-12-02T18:15:54.333Z,0.97
2017-12-02T18:18:20.162Z,0.97
2017-12-02T18:20:49.003Z,0.99
2017-12-02T18:23:14.801Z,1.10
2017-12-02T18:25:43.731Z,1.17
2017-12-02T18:28:09.632Z,1.10
2017-12-02T18:30:38.436Z,1.15
2017-12-02T18:33:04.265Z,1.19
2017-12-02T18:35:33.096Z,1.01
2017-12-02T18:37:58.931Z,1.03
2017-12-02T18:40:24.739Z,1.11
2017-12-02T18:42:50.546Z,1.04
2017-12-02T18:45:16.380Z,1.07
2017-12-02T18:47:45.946Z,1.07
2017-12-02T18:50:11.819Z,0.99
2017-12-02T18:52:39.605Z,0.92
2017-12-02T18:58:18.204Z,1.05
2017-12-02T19:00:44.022Z,1.11
2017-12-02T19:03:09.869Z,1.09
2017-12-02T19:05:35.742Z,0.99
2017-12-02T19:08:01.528Z,1.00
2017-12-02T19:10:27.415Z,1.07
2017-12-02T19:12:53.238Z,0.92
2017-12-02T19:15:19.046Z,0.88
2017-12-02T19:17:44.941Z,0.85
2017-12-02T19:20:10.761Z,0.85
2017-12-02T19:22:36.664Z,0.95
2017-12-02T19:25:02.535Z,0.94
2017-12-02T19:27:28.401Z,1.00
2017-12-02T19:29:54.256Z,1.03
2017-12-02T19:32:20.059Z,1.01
2017-12-02T19:34:45.935Z,0.94
2017-12-02T19:37:11.760Z,0.93
2017-12-02T19:39:37.622Z,0.92
2017-12-02T19:42:04.195Z,0.77
2017-12-02T19:44:30.033Z,0.98
2017-12-02T19:46:55.892Z,0.94
2017-12-02T19:49:24.956Z,0.86
2017-12-02T20:09:11.714Z,0.79
2017-12-02T20:23:27.852Z,0.72
2017-12-02T20:43:21.000Z,0.86
2017-12-02T20:45:46.846Z,0.85
2017-12-02T20:48:12.657Z,0.72
2017-12-02T20:50:38.479Z,0.68
2017-12-02T20:53:04.334Z,0.74
2017-12-02T20:55:30.214Z,0.80
2017-12-02T20:57:56.058Z,0.82
2017-12-02T21:00:21.909Z,0.85
2017-12-02T21:02:47.681Z,0.76
2017-12-02T21:05:13.614Z,0.84
2017-12-02T21:07:39.480Z,0.93
2017-12-02T21:10:05.318Z,0.84
2017-12-02T21:12:31.119Z,0.81
2017-12-02T21:14:56.971Z,0.83
2017-12-02T21:17:22.846Z,0.82
2017-12-02T21:19:48.712Z,0.89
2017-12-02T21:22:14.475Z,0.97
2017-12-02T21:24:40.330Z,0.92
2017-12-02T21:27:06.203Z,0.91
2017-12-02T21:29:32.061Z,0.92
2017-12-02T21:31:57.891Z,0.92
2017-12-02T21:34:24.866Z,0.89
2017-12-02T21:36:50.782Z,0.99
2017-12-02T21:39:20.643Z,0.75
2017-12-02T21:41:46.506Z,1.06
2017-12-02T21:44:12.417Z,1.07
2017-12-02T21:46:38.298Z,1.05
2017-12-02T21:49:04.200Z,1.10
2017-12-02T21:51:31.347Z,1.08
2017-12-02T21:56:49.808Z,1.13
2017-12-02T21:59:15.628Z,1.17
2017-12-02T22:01:41.479Z,1.07
2017-12-02T22:04:07.338Z,1.11
2017-12-02T22:06:33.185Z,1.04
2017-12-02T22:08:59.030Z,1.09
2017-12-02T22:11:24.967Z,1.09
2017-12-02T22:13:50.837Z,1.02
2017-12-02T22:16:16.665Z,1.03
2017-12-02T22:18:42.525Z,1.04
2017-12-02T22:21:08.396Z,0.99
2017-12-02T22:23:34.203Z,1.04
2017-12-02T22:26:00.079Z,1.04
2017-12-02T22:28:25.937Z,1.04
2017-12-02T22:30:51.719Z,0.93
2017-12-02T22:33:17.533Z,0.93
2017-12-02T22:35:43.384Z,1.01
2017-12-02T22:38:09.324Z,1.02
2017-12-02T22:40:35.193Z,1.02
2017-12-02T22:43:01.095Z,1.03
2017-12-02T22:45:26.952Z,1.03
2017-12-02T22:47:54.972Z,1.07
2017-12-02T22:50:20.783Z,0.96
2017-12-02T22:55:17.526Z,1.07
2017-12-02T23:00:38.889Z,1.08
2017-12-02T23:03:04.710Z,1.12
2017-12-02T23:05:30.555Z,1.13
2017-12-02T23:07:56.380Z,1.18
2017-12-02T23:10:22.220Z,1.18
2017-12-02T23:12:48.074Z,1.19
2017-12-02T23:15:13.984Z,1.20
2017-12-02T23:17:39.828Z,1.16
2017-12-02T23:20:05.704Z,1.14
2017-12-02T23:22:31.538Z,1.15
2017-12-02T23:24:57.356Z,1.13
2017-12-02T23:27:23.207Z,1.17
2017-12-02T23:29:49.113Z,1.19
2017-12-02T23:32:14.963Z,1.11
2017-12-02T23:34:40.819Z,1.14
2017-12-02T23:37:06.613Z,1.14
2017-12-02T23:39:32.468Z,1.13
2017-12-02T23:41:58.294Z,1.11
2017-12-02T23:44:24.170Z,1.18
2017-12-02T23:46:49.957Z,0.95
2017-12-02T23:49:15.807Z,0.92
2017-12-02T23:51:41.613Z,1.03
2017-12-02T23:54:07.509Z,1.05
2017-12-02T23:56:33.409Z,1.09
2017-12-02T23:58:59.278Z,1.13
